Time;durP1;ratioP1;P1;durP2;ratioP2;P2;SDS_P1;SDS_P2;PMS_P1;PMS_P2;Temp;Humidity;BMP_temperature;BMP_pressure;BME280_temperature;BME280_humidity;BME280_pressure;Samples;Min_cycle;Max_cycle;Signal;HPM_P1;HPM_P2
2022/10/05 00:00:15;;;;;;;;;;;16.30;99.90;;;;;;5060511;28;19924;-85
2022/10/05 00:02:42;;;;;;;;;;;16.30;99.90;;;;;;5053879;28;19916;-85
2022/10/05 00:05:21;;;;;;;;;;;16.30;99.90;;;;;;5066648;28;19912;-86
2022/10/05 00:07:48;;;;;;;;;;;16.30;99.90;;;;;;5069693;28;19916;-87
2022/10/05 00:10:16;;;;;;;;;;;16.40;99.90;;;;;;5060036;28;19908;-87
2022/10/05 00:12:47;;;;;;;;;;;16.40;99.90;;;;;;5068417;28;19908;-86
2022/10/05 00:15:15;;;;;;;;;;;16.50;99.90;;;;;;5066086;28;20244;-82
2022/10/05 00:17:41;;;;;;;;;;;16.50;99.90;;;;;;5076712;28;20359;-84
2022/10/05 00:20:26;;;;;;;;;;;16.50;99.90;;;;;;5057544;28;19916;-82
2022/10/05 00:22:57;;;;;;;;;;;16.60;99.90;;;;;;5065367;28;19915;-85
2022/10/05 00:25:24;;;;;;;;;;;16.50;99.90;;;;;;5072036;28;20300;-82
2022/10/05 00:27:53;;;;;;;;;;;16.60;99.90;;;;;;5057040;28;19909;-76
2022/10/05 00:30:20;;;;;;;;;;;16.60;99.90;;;;;;5055931;28;19916;-80
2022/10/05 00:32:47;;;;;;;;;;;16.70;99.90;;;;;;5058253;28;19916;-84
2022/10/05 00:35:14;;;;;;;;;;;16.70;99.90;;;;;;5062421;28;20363;-85
2022/10/05 00:37:41;;;;;;;;;;;16.70;99.90;;;;;;5065435;28;19959;-86
2022/10/05 00:40:11;;;;;;;;;;;16.80;99.90;;;;;;5048887;28;20010;-82
2022/10/05 00:42:56;;;;;;;;;;;16.80;99.90;;;;;;5081566;28;19933;-89
2022/10/05 00:45:30;;;;;;;;;;;16.90;99.90;;;;;;5075600;28;19927;-77
2022/10/05 00:47:57;;;;;;;;;;;16.90;99.90;;;;;;5073665;28;20092;-83
2022/10/05 00:50:26;;;;;;;;;;;17.00;99.90;;;;;;5066190;28;19922;-88
2022/10/05 00:53:11;;;;;;;;;;;16.90;99.90;;;;;;5060987;28;19950;-80
2022/10/05 00:55:46;;;;;;;;;;;16.90;99.90;;;;;;5063150;28;19920;-85
2022/10/05 00:58:31;;;;;;;;;;;16.90;99.90;;;;;;5072183;28;19913;-87
2022/10/05 01:00:57;;;;;;;;;;;17.00;99.90;;;;;;5059347;28;19916;-88
2022/10/05 01:03:28;;;;;;;;;;;17.00;99.90;;;;;;5060980;28;19916;-87
2022/10/05 01:06:00;;;;;;;;;;;17.10;99.90;;;;;;5075736;28;19912;-87
2022/10/05 01:08:45;;;;;;;;;;;17.20;99.90;;;;;;5075241;28;20081;-85
2022/10/05 01:11:30;;;;;;;;;;;17.20;99.90;;;;;;5078476;28;20405;-86
2022/10/05 01:14:14;;;;;;;;;;;17.30;99.90;;;;;;5052649;28;19917;-85
2022/10/05 01:16:47;;;;;;;;;;;17.40;99.90;;;;;;5053245;28;20367;-79
2022/10/05 01:19:33;;;;;;;;;;;17.40;99.90;;;;;;5052919;28;20862;-82
2022/10/05 01:22:06;;;;;;;;;;;17.40;99.90;;;;;;5057724;28;20228;-85
2022/10/05 01:24:45;;;;;;;;;;;17.50;99.90;;;;;;5062167;28;19923;-84
2022/10/05 01:27:11;;;;;;;;;;;17.50;99.90;;;;;;5055363;28;20378;-81
2022/10/05 01:30:07;;;;;;;;;;;17.50;99.90;;;;;;5063956;28;19931;-83
2022/10/05 01:32:38;;;;;;;;;;;17.50;99.90;;;;;;5056377;28;19924;-82
2022/10/05 01:35:08;;;;;;;;;;;17.50;99.90;;;;;;5064780;28;20359;-79
2022/10/05 01:37:35;;;;;;;;;;;17.60;99.90;;;;;;5059722;28;20267;-82
2022/10/05 01:40:01;;;;;;;;;;;17.50;99.90;;;;;;5054080;28;19919;-82
2022/10/05 01:42:30;;;;;;;;;;;17.50;99.90;;;;;;5053786;28;19920;-85
2022/10/05 01:45:00;;;;;;;;;;;17.50;99.90;;;;;;5053765;28;19921;-79
2022/10/05 01:47:30;;;;;;;;;;;17.50;99.90;;;;;;5056151;28;19916;-79
2022/10/05 01:50:25;;;;;;;;;;;17.60;99.90;;;;;;5058157;28;20350;-73
2022/10/05 01:52:52;;;;;;;;;;;17.50;99.90;;;;;;5043667;28;19913;-76
2022/10/05 01:55:19;;;;;;;;;;;17.60;99.90;;;;;;5054312;28;19920;-75
2022/10/05 01:57:48;;;;;;;;;;;17.60;99.90;;;;;;5052761;28;19912;-77
2022/10/05 02:00:17;;;;;;;;;;;17.60;99.90;;;;;;5054568;28;21503;-84
2022/10/05 02:03:03;;;;;;;;;;;17.60;99.90;;;;;;5052584;28;19959;-85
2022/10/05 02:05:38;;;;;;;;;;;17.60;99.90;;;;;;5051900;28;20354;-84
2022/10/05 02:08:08;;;;;;;;;;;17.60;99.90;;;;;;5053757;28;20591;-84
2022/10/05 02:11:01;;;;;;;;;;;17.60;99.90;;;;;;5049742;28;19916;-81
2022/10/05 02:13:28;;;;;;;;;;;17.60;99.90;;;;;;5046571;28;19998;-78
2022/10/05 02:15:58;;;;;;;;;;;17.60;99.90;;;;;;5053187;28;20061;-77
2022/10/05 02:18:28;;;;;;;;;;;17.60;99.90;;;;;;5051261;28;19924;-80
2022/10/05 02:20:56;;;;;;;;;;;17.70;99.90;;;;;;5062270;28;19916;-81
2022/10/05 02:23:24;;;;;;;;;;;17.60;99.90;;;;;;5049126;28;20563;-74
2022/10/05 02:25:52;;;;;;;;;;;17.70;99.90;;;;;;5053987;28;19908;-79
2022/10/05 02:28:22;;;;;;;;;;;17.70;99.90;;;;;;5052499;28;19912;-77
2022/10/05 02:30:52;;;;;;;;;;;17.70;99.90;;;;;;5051393;28;19955;-80
2022/10/05 02:33:26;;;;;;;;;;;17.80;99.90;;;;;;5051490;28;20038;-79
2022/10/05 02:35:53;;;;;;;;;;;17.80;99.90;;;;;;5050689;28;19912;-84
2022/10/05 02:38:45;;;;;;;;;;;17.80;99.90;;;;;;5052014;28;19944;-81
2022/10/05 02:41:20;;;;;;;;;;;17.70;99.90;;;;;;5058274;28;19947;-75
2022/10/05 02:44:02;;;;;;;;;;;17.80;99.90;;;;;;5053047;28;19924;-81
2022/10/05 02:46:29;;;;;;;;;;;17.70;99.90;;;;;;5052450;28;19915;-81
2022/10/05 02:48:58;;;;;;;;;;;17.70;99.90;;;;;;5050847;28;19912;-79
2022/10/05 02:51:34;;;;;;;;;;;17.70;99.90;;;;;;5053848;28;19923;-79
2022/10/05 02:54:03;;;;;;;;;;;17.70;99.90;;;;;;5053389;28;20278;-85
2022/10/05 02:56:48;;;;;;;;;;;17.70;99.90;;;;;;5054076;28;19909;-81
2022/10/05 02:59:47;;;;;;;;;;;17.60;99.90;;;;;;5054230;28;20360;-81
2022/10/05 03:02:26;;;;;;;;;;;17.50;99.90;;;;;;5009323;28;19963;-81
2022/10/05 03:05:12;;;;;;;;;;;17.40;99.90;;;;;;5052786;28;19978;-84
2022/10/05 03:07:58;;;;;;;;;;;17.40;99.90;;;;;;5053257;28;19919;-81
2022/10/05 03:10:34;;;;;;;;;;;17.30;99.90;;;;;;5056439;28;19958;-79
2022/10/05 03:13:27;;;;;;;;;;;17.20;99.90;;;;;;5053151;28;20611;-82
2022/10/05 03:15:53;;;;;;;;;;;17.10;99.90;;;;;;5049855;28;20546;-83
2022/10/05 03:18:38;;;;;;;;;;;17.00;99.90;;;;;;5055225;28;19919;-82
2022/10/05 03:21:07;;;;;;;;;;;16.90;99.90;;;;;;5059625;28;19915;-86
2022/10/05 03:23:57;;;;;;;;;;;16.80;99.90;;;;;;5062429;28;19920;-83
2022/10/05 03:26:26;;;;;;;;;;;16.70;99.90;;;;;;5029771;28;20283;-80
2022/10/05 03:28:59;;;;;;;;;;;16.70;99.90;;;;;;5057308;28;19909;-86
2022/10/05 03:31:46;;;;;;;;;;;16.60;99.90;;;;;;5059519;28;19908;-83
2022/10/05 03:34:18;;;;;;;;;;;16.50;99.90;;;;;;5058969;28;20280;-83
2022/10/05 03:37:04;;;;;;;;;;;16.40;99.90;;;;;;5057802;28;21379;-85
2022/10/05 03:39:41;;;;;;;;;;;16.30;99.90;;;;;;5060980;28;20351;-80
2022/10/05 03:42:08;;;;;;;;;;;16.10;99.90;;;;;;5057720;28;20426;-82
2022/10/05 03:44:43;;;;;;;;;;;15.90;99.90;;;;;;5066108;28;20353;-85
2022/10/05 03:47:18;;;;;;;;;;;15.80;99.90;;;;;;5058658;28;19967;-83
2022/10/05 03:49:48;;;;;;;;;;;15.70;99.90;;;;;;5055606;28;20014;-82
2022/10/05 03:52:16;;;;;;;;;;;15.60;99.90;;;;;;5060947;28;19940;-83
2022/10/05 03:54:48;;;;;;;;;;;15.50;99.90;;;;;;5057719;28;20358;-85
2022/10/05 03:57:25;;;;;;;;;;;15.40;99.90;;;;;;5065548;28;19909;-80
2022/10/05 04:00:03;;;;;;;;;;;15.40;99.90;;;;;;5057356;28;20582;-80
2022/10/05 04:02:33;;;;;;;;;;;15.30;99.90;;;;;;5060721;28;19909;-85
2022/10/05 04:05:02;;;;;;;;;;;15.30;99.90;;;;;;5058296;28;19920;-84
2022/10/05 04:07:52;;;;;;;;;;;15.30;99.90;;;;;;5057683;28;20390;-82
2022/10/05 04:10:23;;;;;;;;;;;15.30;99.90;;;;;;5047109;28;20359;-81
2022/10/05 04:13:18;;;;;;;;;;;15.30;99.90;;;;;;5056727;28;19908;-80
2022/10/05 04:15:54;;;;;;;;;;;15.30;99.90;;;;;;5039321;28;19912;-80
2022/10/05 04:18:24;;;;;;;;;;;15.30;99.90;;;;;;5054937;28;19913;-79
2022/10/05 04:20:53;;;;;;;;;;;15.30;99.90;;;;;;5053150;28;19913;-83
2022/10/05 04:23:38;;;;;;;;;;;15.40;99.90;;;;;;5053966;28;19956;-83
2022/10/05 04:26:09;;;;;;;;;;;15.40;99.90;;;;;;5069034;28;19923;-85
2022/10/05 04:28:38;;;;;;;;;;;15.40;99.90;;;;;;5060701;28;19959;-81
2022/10/05 04:31:06;;;;;;;;;;;15.40;99.90;;;;;;5057444;28;20283;-80
2022/10/05 04:33:34;;;;;;;;;;;15.40;99.90;;;;;;5057627;28;20018;-87
2022/10/05 04:36:21;;;;;;;;;;;15.40;99.90;;;;;;5059029;28;19963;-84
2022/10/05 04:39:14;;;;;;;;;;;15.40;99.90;;;;;;5058028;28;19959;-82
2022/10/05 04:41:46;;;;;;;;;;;15.40;99.90;;;;;;5030293;28;19912;-85
2022/10/05 04:44:17;;;;;;;;;;;15.30;99.90;;;;;;5056591;28;19924;-83
2022/10/05 04:46:43;;;;;;;;;;;15.20;99.90;;;;;;5062472;28;19908;-79
2022/10/05 04:49:22;;;;;;;;;;;15.30;99.90;;;;;;5055606;28;19935;-81
2022/10/05 04:51:51;;;;;;;;;;;15.20;99.90;;;;;;5059856;28;20278;-81
2022/10/05 04:54:44;;;;;;;;;;;15.20;99.90;;;;;;5052142;28;19913;-87
2022/10/05 04:57:20;;;;;;;;;;;15.20;99.90;;;;;;5037383;28;20490;-80
2022/10/05 04:59:49;;;;;;;;;;;15.20;99.90;;;;;;5066591;28;19909;-84
2022/10/05 05:02:22;;;;;;;;;;;15.20;99.90;;;;;;5055974;28;20401;-83
2022/10/05 05:05:15;;;;;;;;;;;15.20;99.90;;;;;;5058763;28;19920;-82
2022/10/05 05:07:53;;;;;;;;;;;15.20;99.90;;;;;;5053334;28;19916;-83
2022/10/05 05:10:22;;;;;;;;;;;15.20;99.90;;;;;;5055094;28;19908;-82
2022/10/05 05:13:07;;;;;;;;;;;15.20;99.90;;;;;;5055488;28;19916;-80
2022/10/05 05:15:39;;;;;;;;;;;15.20;99.90;;;;;;5055066;28;19912;-82
2022/10/05 05:18:16;;;;;;;;;;;15.20;99.90;;;;;;5051424;28;20276;-83
2022/10/05 05:21:00;;;;;;;;;;;15.20;99.90;;;;;;5062345;28;19999;-80
2022/10/05 05:23:36;;;;;;;;;;;15.10;99.90;;;;;;5051174;28;19927;-81
2022/10/05 05:26:10;;;;;;;;;;;15.10;99.90;;;;;;5055002;28;19912;-78
2022/10/05 05:28:43;;;;;;;;;;;15.10;99.90;;;;;;5052717;28;20037;-79
2022/10/05 05:31:16;;;;;;;;;;;15.10;99.90;;;;;;5054963;28;19974;-83
2022/10/05 05:33:53;;;;;;;;;;;15.10;99.90;;;;;;5055083;28;19920;-81
2022/10/05 05:36:34;;;;;;;;;;;15.10;99.90;;;;;;5058618;28;19974;-81
2022/10/05 05:39:19;;;;;;;;;;;15.10;99.90;;;;;;5070960;28;20310;-78
2022/10/05 05:41:51;;;;;;;;;;;15.10;99.90;;;;;;5065546;28;19941;-82
2022/10/05 05:44:24;;;;;;;;;;;15.20;99.90;;;;;;5080265;28;19963;-83
2022/10/05 05:47:10;;;;;;;;;;;15.20;99.90;;;;;;5069182;28;19913;-81
2022/10/05 05:49:43;;;;;;;;;;;15.10;99.90;;;;;;5063120;28;19969;-83
2022/10/05 05:52:19;;;;;;;;;;;15.20;99.90;;;;;;5068305;28;19913;-81
2022/10/05 05:54:52;;;;;;;;;;;15.10;99.90;;;;;;5068704;28;19912;-85
2022/10/05 05:57:41;;;;;;;;;;;15.10;99.90;;;;;;5071761;28;19955;-81
2022/10/05 06:00:18;;;;;;;;;;;14.90;99.90;;;;;;5056290;28;19919;-80
2022/10/05 06:03:06;;;;;;;;;;;14.90;99.90;;;;;;5057644;28;19908;-77
2022/10/05 06:05:35;;;;;;;;;;;14.80;99.90;;;;;;5066299;28;20333;-81
2022/10/05 06:08:22;;;;;;;;;;;14.70;99.90;;;;;;5063624;28;19912;-81
2022/10/05 06:10:54;;;;;;;;;;;14.70;99.90;;;;;;5062578;28;19912;-82
2022/10/05 06:13:28;;;;;;;;;;;14.70;99.90;;;;;;5061910;28;19915;-81
2022/10/05 06:16:12;;;;;;;;;;;14.70;99.90;;;;;;5068272;28;19908;-83
2022/10/05 06:18:42;;;;;;;;;;;14.60;99.90;;;;;;5060442;28;19916;-85
2022/10/05 06:21:18;;;;;;;;;;;14.70;99.90;;;;;;5057399;28;20006;-78
2022/10/05 06:24:05;;;;;;;;;;;14.70;99.90;;;;;;5049510;28;20418;-79
2022/10/05 06:26:49;;;;;;;;;;;14.70;99.90;;;;;;5052693;28;19912;-84
2022/10/05 06:29:20;;;;;;;;;;;14.60;99.90;;;;;;5054427;28;19923;-80
2022/10/05 06:32:02;;;;;;;;;;;14.60;99.90;;;;;;5050396;28;19955;-83
2022/10/05 06:34:52;;;;;;;;;;;14.60;99.90;;;;;;5054545;28;19955;-84
2022/10/05 06:37:39;;;;;;;;;;;14.60;99.90;;;;;;5051919;28;19953;-78
2022/10/05 06:40:27;;;;;;;;;;;14.60;99.90;;;;;;5028797;28;19925;-76
2022/10/05 06:42:56;;;;;;;;;;;14.50;99.90;;;;;;5061233;28;19912;-76
2022/10/05 06:45:41;;;;;;;;;;;14.60;99.90;;;;;;5051727;28;19924;-82
2022/10/05 06:48:11;;;;;;;;;;;14.60;99.90;;;;;;5055341;28;19912;-87
2022/10/05 06:50:52;;;;;;;;;;;14.60;99.90;;;;;;5051095;28;19925;-79
2022/10/05 06:53:24;;;;;;;;;;;14.60;99.90;;;;;;5072190;28;19918;-82
2022/10/05 06:56:08;;;;;;;;;;;14.60;99.90;;;;;;5076363;28;19915;-85
2022/10/05 06:58:44;;;;;;;;;;;14.60;99.90;;;;;;5066808;28;19931;-80
2022/10/05 07:01:24;;;;;;;;;;;14.70;99.90;;;;;;5069084;28;19909;-78
2022/10/05 07:03:57;;;;;;;;;;;14.70;99.90;;;;;;5067517;28;20355;-78
2022/10/05 07:06:47;;;;;;;;;;;14.80;99.90;;;;;;5066222;28;19905;-80
2022/10/05 07:09:39;;;;;;;;;;;14.70;99.90;;;;;;5052985;28;19924;-80
2022/10/05 07:12:14;;;;;;;;;;;14.70;99.90;;;;;;5054601;28;19924;-83
2022/10/05 07:15:05;;;;;;;;;;;14.80;99.90;;;;;;5054036;28;20019;-77
2022/10/05 07:17:52;;;;;;;;;;;14.80;99.90;;;;;;5055757;28;19920;-77
2022/10/05 07:20:45;;;;;;;;;;;14.90;99.90;;;;;;5051849;28;20367;-80
2022/10/05 07:23:11;;;;;;;;;;;14.90;99.90;;;;;;5051538;28;19920;-75
2022/10/05 07:25:57;;;;;;;;;;;14.90;99.90;;;;;;5055535;28;20039;-75
2022/10/05 07:28:42;;;;;;;;;;;14.90;99.90;;;;;;5068384;28;19923;-80
2022/10/05 07:31:13;;;;;;;;;;;14.90;99.90;;;;;;5056465;28;19916;-79
2022/10/05 07:33:40;;;;;;;;;;;14.90;99.90;;;;;;5069486;28;19921;-82
2022/10/05 07:39:04;;;;;;;;;;;14.90;99.90;;;;;;5055438;28;19931;-76
2022/10/05 07:41:37;;;;;;;;;;;14.80;99.90;;;;;;5056603;28;19925;-77
2022/10/05 07:44:22;;;;;;;;;;;14.80;99.90;;;;;;5054764;28;19920;-82
2022/10/05 07:46:52;;;;;;;;;;;14.80;99.90;;;;;;5053485;28;20490;-78
2022/10/05 07:49:23;;;;;;;;;;;14.80;99.90;;;;;;5060026;28;19936;-79
2022/10/05 07:52:15;;;;;;;;;;;14.80;99.90;;;;;;5053135;28;19944;-82
2022/10/05 07:55:00;;;;;;;;;;;14.80;99.90;;;;;;5053030;28;19909;-83
2022/10/05 07:57:59;;;;;;;;;;;14.80;99.90;;;;;;5060896;28;20297;-83
2022/10/05 08:00:29;;;;;;;;;;;14.80;99.90;;;;;;5030723;28;19909;-76
2022/10/05 08:03:06;;;;;;;;;;;14.80;99.90;;;;;;5055040;28;20286;-85
2022/10/05 08:05:36;;;;;;;;;;;14.80;99.90;;;;;;5058263;28;19920;-81
2022/10/05 08:08:11;;;;;;;;;;;14.70;99.90;;;;;;5054354;28;19985;-83
2022/10/05 08:10:38;;;;;;;;;;;14.80;99.90;;;;;;5058808;28;19920;-82
2022/10/05 08:13:09;;;;;;;;;;;14.70;99.90;;;;;;5061617;28;20329;-83
2022/10/05 08:15:41;;;;;;;;;;;14.70;99.90;;;;;;5071414;28;20350;-80
2022/10/05 08:18:16;;;;;;;;;;;14.80;99.90;;;;;;5074133;28;20354;-82
2022/10/05 08:20:54;;;;;;;;;;;14.70;99.90;;;;;;5072830;28;20006;-80
2022/10/05 08:23:25;;;;;;;;;;;14.70;99.90;;;;;;5069288;28;19916;-83
2022/10/05 08:26:05;;;;;;;;;;;14.80;99.90;;;;;;5071736;28;20428;-79
2022/10/05 08:28:41;;;;;;;;;;;14.70;99.90;;;;;;5052498;28;20835;-80
2022/10/05 08:31:27;;;;;;;;;;;14.70;99.90;;;;;;5068492;28;19908;-81
2022/10/05 08:34:20;;;;;;;;;;;14.70;99.90;;;;;;5066289;28;19962;-82
2022/10/05 08:37:07;;;;;;;;;;;14.70;99.90;;;;;;5038206;28;19912;-84
2022/10/05 08:39:39;;;;;;;;;;;14.70;99.90;;;;;;5070292;28;19916;-86
2022/10/05 08:42:06;;;;;;;;;;;14.70;99.90;;;;;;5072834;28;20367;-85
2022/10/05 08:44:36;;;;;;;;;;;14.70;99.90;;;;;;5069917;28;20283;-84
2022/10/05 08:47:15;;;;;;;;;;;14.70;99.90;;;;;;5062644;28;19909;-83
2022/10/05 08:49:42;;;;;;;;;;;14.70;99.90;;;;;;5062530;28;19962;-81
2022/10/05 08:52:14;;;;;;;;;;;14.70;99.90;;;;;;5067680;28;19986;-82
2022/10/05 08:54:52;;;;;;;;;;;14.70;99.90;;;;;;5070207;28;19913;-84
2022/10/05 08:57:38;;;;;;;;;;;14.70;99.90;;;;;;5070708;28;19915;-80
2022/10/05 09:00:17;;;;;;;;;;;14.80;99.90;;;;;;5064541;28;19908;-81
2022/10/05 09:03:03;;;;;;;;;;;14.70;99.90;;;;;;5073447;28;19908;-81
2022/10/05 09:05:48;;;;;;;;;;;14.80;99.90;;;;;;5068125;28;19922;-76
2022/10/05 09:08:19;;;;;;;;;;;14.80;99.90;;;;;;5060106;28;20003;-81
2022/10/05 09:11:02;;;;;;;;;;;14.70;99.90;;;;;;5077451;28;19977;-79
2022/10/05 09:13:47;;;;;;;;;;;14.70;99.90;;;;;;5074989;28;19913;-82
2022/10/05 09:16:16;;;;;;;;;;;14.70;99.90;;;;;;5059051;28;19959;-85
2022/10/05 09:19:15;;;;;;;;;;;14.70;99.90;;;;;;5070274;28;19915;-80
2022/10/05 09:21:43;;;;;;;;;;;14.70;99.90;;;;;;5072786;28;19931;-80
2022/10/05 09:24:12;;;;;;;;;;;14.70;99.90;;;;;;5076082;28;20639;-81
2022/10/05 09:26:51;;;;;;;;;;;14.70;99.90;;;;;;5077481;28;19915;-79
2022/10/05 09:29:24;;;;;;;;;;;14.70;99.90;;;;;;5077962;28;20672;-79
2022/10/05 09:31:56;;;;;;;;;;;14.70;99.90;;;;;;5077036;28;19923;-78
2022/10/05 09:34:32;;;;;;;;;;;14.80;99.90;;;;;;5063542;28;19927;-77
2022/10/05 09:37:02;;;;;;;;;;;14.70;99.90;;;;;;5063971;28;19915;-78
2022/10/05 09:39:40;;;;;;;;;;;14.70;99.90;;;;;;5060193;28;20012;-78
2022/10/05 09:42:07;;;;;;;;;;;14.70;99.90;;;;;;5082667;28;20263;-79
2022/10/05 09:44:57;;;;;;;;;;;14.70;99.90;;;;;;5068541;28;19925;-80
2022/10/05 09:47:30;;;;;;;;;;;14.70;99.90;;;;;;5062810;28;19916;-78
2022/10/05 09:49:57;;;;;;;;;;;14.70;99.90;;;;;;5062947;28;19943;-79
2022/10/05 09:52:26;;;;;;;;;;;14.70;99.90;;;;;;5068535;28;19917;-79
2022/10/05 09:55:12;;;;;;;;;;;14.70;99.90;;;;;;5075238;28;19908;-78
2022/10/05 09:57:54;;;;;;;;;;;14.60;99.90;;;;;;5064361;28;19912;-80
2022/10/05 10:00:25;;;;;;;;;;;14.70;99.90;;;;;;5057663;28;19916;-78
2022/10/05 10:03:07;;;;;;;;;;;14.70;99.90;;;;;;5074141;28;20470;-79
2022/10/05 10:05:33;;;;;;;;;;;14.70;99.90;;;;;;5062083;28;19917;-78
2022/10/05 10:08:03;;;;;;;;;;;14.60;99.90;;;;;;5069505;28;19912;-78
2022/10/05 10:10:48;;;;;;;;;;;14.70;99.90;;;;;;5070093;28;19978;-79
2022/10/05 10:13:24;;;;;;;;;;;14.70;99.90;;;;;;5060335;28;19908;-79
2022/10/05 10:16:09;;;;;;;;;;;14.70;99.90;;;;;;5066921;28;19920;-80
2022/10/05 10:18:44;;;;;;;;;;;14.70;99.90;;;;;;5063087;28;19916;-80
2022/10/05 10:21:28;;;;;;;;;;;14.70;99.90;;;;;;5062349;28;19980;-81
2022/10/05 10:23:59;;;;;;;;;;;14.70;99.90;;;;;;5065225;28;19912;-79
2022/10/05 10:26:57;;;;;;;;;;;14.70;99.90;;;;;;5067051;28;19909;-78
2022/10/05 10:29:30;;;;;;;;;;;14.70;99.90;;;;;;5020571;28;19907;-75
2022/10/05 10:32:03;;;;;;;;;;;14.70;99.90;;;;;;5057995;28;19912;-80
2022/10/05 10:34:45;;;;;;;;;;;14.70;99.90;;;;;;5069906;28;19924;-78
2022/10/05 10:37:29;;;;;;;;;;;14.60;99.90;;;;;;5068344;28;20002;-78
2022/10/05 10:40:03;;;;;;;;;;;14.60;99.90;;;;;;5052699;28;20374;-78
2022/10/05 10:42:29;;;;;;;;;;;14.60;99.90;;;;;;5048599;28;19908;-79
2022/10/05 10:44:59;;;;;;;;;;;14.60;99.90;;;;;;5068571;28;19916;-81
2022/10/05 10:47:31;;;;;;;;;;;14.60;99.90;;;;;;5055603;28;21694;-77
2022/10/05 10:50:10;;;;;;;;;;;14.50;99.90;;;;;;5051280;28;19916;-77
2022/10/05 10:52:43;;;;;;;;;;;14.60;99.90;;;;;;5052503;28;19970;-75
2022/10/05 10:55:19;;;;;;;;;;;14.60;99.90;;;;;;5048023;28;19924;-76
2022/10/05 10:57:48;;;;;;;;;;;14.60;99.90;;;;;;5071732;28;19915;-77
2022/10/05 11:00:27;;;;;;;;;;;14.60;99.90;;;;;;5070788;28;20248;-79
2022/10/05 11:02:57;;;;;;;;;;;14.60;99.90;;;;;;5065005;28;19954;-79
2022/10/05 11:05:45;;;;;;;;;;;14.60;99.90;;;;;;5067788;28;19970;-82
2022/10/05 11:08:30;;;;;;;;;;;14.60;99.90;;;;;;5060707;28;19948;-82
2022/10/05 11:11:09;;;;;;;;;;;14.50;99.90;;;;;;5070653;28;19912;-80
2022/10/05 11:13:41;;;;;;;;;;;14.50;99.90;;;;;;5062494;28;20083;-79
2022/10/05 11:16:33;;;;;;;;;;;14.50;99.90;;;;;;5061155;28;19913;-80
2022/10/05 11:19:22;;;;;;;;;;;14.50;99.90;;;;;;5066525;28;20324;-80
2022/10/05 11:21:58;;;;;;;;;;;14.60;99.90;;;;;;5051323;28;19912;-80
2022/10/05 11:24:37;;;;;;;;;;;14.60;99.90;;;;;;5066479;28;19920;-81
2022/10/05 11:27:22;;;;;;;;;;;14.60;99.90;;;;;;5046726;28;19909;-77
2022/10/05 11:30:18;;;;;;;;;;;14.50;99.90;;;;;;5049257;28;19912;-76
2022/10/05 11:32:48;;;;;;;;;;;14.50;99.90;;;;;;5033726;28;20441;-76
2022/10/05 11:35:26;;;;;;;;;;;14.50;99.90;;;;;;5051891;28;19915;-76
2022/10/05 11:38:11;;;;;;;;;;;14.50;99.90;;;;;;5053125;28;19958;-78
2022/10/05 11:40:38;;;;;;;;;;;14.50;99.90;;;;;;5052476;28;20544;-80
2022/10/05 11:43:22;;;;;;;;;;;14.50;99.90;;;;;;5058225;28;19909;-78
2022/10/05 11:46:10;;;;;;;;;;;14.50;99.90;;;;;;5055514;28;19925;-78
2022/10/05 11:48:55;;;;;;;;;;;14.50;99.90;;;;;;5075752;28;19916;-78
2022/10/05 11:51:29;;;;;;;;;;;14.50;99.90;;;;;;5103025;28;19908;-78
2022/10/05 11:54:16;;;;;;;;;;;14.50;99.90;;;;;;5070151;28;19912;-77
2022/10/05 11:57:04;;;;;;;;;;;14.50;99.90;;;;;;5066121;28;19909;-80
2022/10/05 11:59:43;;;;;;;;;;;14.50;99.90;;;;;;5076457;28;19934;-78
2022/10/05 12:02:13;;;;;;;;;;;14.50;99.90;;;;;;5072115;28;20263;-77
2022/10/05 12:04:53;;;;;;;;;;;14.50;99.90;;;;;;5071864;28;19923;-78
2022/10/05 12:07:52;;;;;;;;;;;14.50;99.90;;;;;;5049947;28;19917;-78
2022/10/05 12:10:31;;;;;;;;;;;14.50;99.90;;;;;;5019595;28;19916;-80
2022/10/05 12:13:09;;;;;;;;;;;14.50;99.90;;;;;;5049907;28;20355;-82
2022/10/05 12:15:36;;;;;;;;;;;14.50;99.90;;;;;;5055360;28;19908;-81
2022/10/05 12:18:12;;;;;;;;;;;14.50;99.90;;;;;;5057485;28;19999;-80
2022/10/05 12:20:54;;;;;;;;;;;14.50;99.90;;;;;;5068227;28;20627;-81
2022/10/05 12:23:36;;;;;;;;;;;14.50;99.90;;;;;;5065739;28;19988;-78
2022/10/05 12:26:05;;;;;;;;;;;14.40;99.90;;;;;;5077038;28;19912;-80
2022/10/05 12:28:37;;;;;;;;;;;14.40;99.90;;;;;;5064623;28;20035;-82
2022/10/05 12:31:19;;;;;;;;;;;14.40;99.90;;;;;;5069349;28;20374;-81
2022/10/05 12:33:51;;;;;;;;;;;14.30;99.90;;;;;;5071841;28;20306;-83
2022/10/05 12:36:41;;;;;;;;;;;14.30;99.90;;;;;;5059865;28;19923;-81
2022/10/05 12:39:16;;;;;;;;;;;14.30;99.90;;;;;;5055653;28;20334;-80
2022/10/05 12:41:44;;;;;;;;;;;14.30;99.90;;;;;;5067683;28;19995;-80
2022/10/05 12:44:28;;;;;;;;;;;14.30;99.90;;;;;;5069075;28;20010;-83
2022/10/05 12:46:55;;;;;;;;;;;14.30;99.90;;;;;;5072062;28;19919;-83
2022/10/05 12:49:34;;;;;;;;;;;14.40;99.90;;;;;;5071005;28;19916;-84
2022/10/05 12:52:03;;;;;;;;;;;14.30;99.90;;;;;;5070256;28;19909;-83
2022/10/05 12:54:42;;;;;;;;;;;14.30;99.90;;;;;;5063952;28;19938;-81
2022/10/05 12:57:23;;;;;;;;;;;14.30;99.90;;;;;;5071061;28;19928;-81
2022/10/05 13:00:01;;;;;;;;;;;14.30;99.90;;;;;;5068014;28;20337;-82
2022/10/05 13:02:32;;;;;;;;;;;14.30;99.90;;;;;;5071163;28;20359;-79
2022/10/05 13:05:06;;;;;;;;;;;14.30;99.90;;;;;;5057894;28;19999;-84
2022/10/05 13:07:50;;;;;;;;;;;14.30;99.90;;;;;;5069228;28;19908;-83
2022/10/05 13:10:21;;;;;;;;;;;14.30;99.90;;;;;;5068144;28;19908;-81
2022/10/05 13:13:06;;;;;;;;;;;14.30;99.90;;;;;;5065107;28;20386;-81
2022/10/05 13:15:40;;;;;;;;;;;14.30;99.90;;;;;;5063168;28;19912;-83
2022/10/05 13:18:16;;;;;;;;;;;14.30;99.90;;;;;;5068298;28;19905;-83
2022/10/05 13:20:43;;;;;;;;;;;14.30;99.90;;;;;;5067995;28;19913;-81
2022/10/05 13:23:15;;;;;;;;;;;14.30;99.90;;;;;;5062587;28;19908;-84
2022/10/05 13:26:02;;;;;;;;;;;14.30;99.90;;;;;;5063751;28;20051;-81
2022/10/05 13:28:36;;;;;;;;;;;14.30;99.90;;;;;;5060294;28;20363;-81
2022/10/05 13:31:11;;;;;;;;;;;14.30;99.90;;;;;;5070293;28;19908;-77
2022/10/05 13:33:57;;;;;;;;;;;14.30;99.90;;;;;;5057867;28;19999;-81
2022/10/05 13:36:24;;;;;;;;;;;14.30;99.90;;;;;;5060058;28;19909;-80
2022/10/05 13:38:53;;;;;;;;;;;14.30;99.90;;;;;;5066633;28;19960;-86
2022/10/05 13:41:47;;;;;;;;;;;14.30;99.90;;;;;;5072429;28;20373;-82
2022/10/05 13:44:36;;;;;;;;;;;14.30;99.90;;;;;;5064100;28;19920;-82
2022/10/05 13:47:08;;;;;;;;;;;14.30;99.90;;;;;;5071371;28;19917;-79
2022/10/05 13:49:41;;;;;;;;;;;14.30;99.90;;;;;;5066056;28;19908;-82
2022/10/05 13:52:07;;;;;;;;;;;14.30;99.90;;;;;;5071022;28;19912;-78
2022/10/05 13:54:40;;;;;;;;;;;14.40;99.90;;;;;;5075200;28;20302;-81
2022/10/05 13:57:12;;;;;;;;;;;14.30;99.90;;;;;;5080785;28;19914;-83
2022/10/05 13:59:42;;;;;;;;;;;14.30;99.90;;;;;;5070429;28;19912;-82
2022/10/05 14:02:10;;;;;;;;;;;14.30;99.90;;;;;;5063193;28;19997;-82
2022/10/05 14:04:45;;;;;;;;;;;14.30;99.90;;;;;;5075179;28;20913;-81
2022/10/05 14:07:35;;;;;;;;;;;14.30;99.90;;;;;;5067219;28;19908;-86
2022/10/05 14:10:06;;;;;;;;;;;14.30;99.90;;;;;;5044792;28;19912;-86
2022/10/05 14:12:40;;;;;;;;;;;14.40;99.90;;;;;;5071655;28;19922;-86
2022/10/05 14:15:28;;;;;;;;;;;14.40;99.90;;;;;;5077774;28;19912;-83
2022/10/05 14:17:55;;;;;;;;;;;14.40;99.90;;;;;;5073606;28;20406;-83
2022/10/05 14:20:24;;;;;;;;;;;14.40;99.90;;;;;;5063862;28;19916;-82
2022/10/05 14:23:01;;;;;;;;;;;14.40;99.90;;;;;;5064423;28;19908;-84
2022/10/05 14:25:31;;;;;;;;;;;14.40;99.90;;;;;;5069520;28;19916;-80
2022/10/05 14:28:00;;;;;;;;;;;14.40;99.90;;;;;;5068291;28;20357;-83
2022/10/05 14:30:28;;;;;;;;;;;14.40;99.90;;;;;;5070918;28;19935;-79
2022/10/05 14:32:55;;;;;;;;;;;14.40;99.90;;;;;;5067609;28;19916;-83
2022/10/05 14:35:24;;;;;;;;;;;14.40;99.90;;;;;;5066821;28;19908;-81
2022/10/05 14:37:58;;;;;;;;;;;14.50;99.90;;;;;;5058811;28;19959;-85
2022/10/05 14:40:30;;;;;;;;;;;14.40;99.90;;;;;;5058969;28;19989;-84
2022/10/05 14:42:59;;;;;;;;;;;14.50;99.90;;;;;;5069476;28;19911;-81
2022/10/05 14:45:28;;;;;;;;;;;14.50;99.90;;;;;;5068678;28;19920;-80
2022/10/05 14:47:59;;;;;;;;;;;14.50;99.90;;;;;;5057371;28;19958;-81
2022/10/05 14:50:28;;;;;;;;;;;14.50;99.90;;;;;;5068889;28;19931;-79
2022/10/05 14:52:57;;;;;;;;;;;14.50;99.90;;;;;;5074969;28;19942;-83
2022/10/05 14:55:43;;;;;;;;;;;14.50;99.90;;;;;;5064217;28;19912;-81
2022/10/05 14:58:23;;;;;;;;;;;14.50;99.90;;;;;;5068549;28;20401;-81
2022/10/05 15:01:01;;;;;;;;;;;14.50;99.90;;;;;;5070620;28;19912;-80
2022/10/05 15:03:46;;;;;;;;;;;14.50;99.90;;;;;;5068348;28;19915;-74
2022/10/05 15:06:22;;;;;;;;;;;14.50;99.90;;;;;;5065088;28;19909;-81
2022/10/05 15:09:07;;;;;;;;;;;14.50;99.90;;;;;;5055009;28;19913;-83
2022/10/05 15:11:33;;;;;;;;;;;14.60;99.90;;;;;;5062445;28;19912;-80